sensor_id;sensor_type;location;lat;lon;timestamp;temperature;humidity
820;DHT22;392;48.838;2.322;2022-07-29T00:01:08;22.60;12.40
820;DHT22;392;48.838;2.322;2022-07-29T00:03:35;22.50;12.50
820;DHT22;392;48.838;2.322;2022-07-29T00:06:03;22.50;12.60
820;DHT22;392;48.838;2.322;2022-07-29T00:08:30;22.50;12.60
820;DHT22;392;48.838;2.322;2022-07-29T00:10:57;22.50;12.80
820;DHT22;392;48.838;2.322;2022-07-29T00:13:26;22.40;12.90
820;DHT22;392;48.838;2.322;2022-07-29T00:15:53;22.40;13.00
820;DHT22;392;48.838;2.322;2022-07-29T00:18:21;22.40;13.10
820;DHT22;392;48.838;2.322;2022-07-29T00:20:48;22.40;13.70
820;DHT22;392;48.838;2.322;2022-07-29T00:23:16;22.40;13.30
820;DHT22;392;48.838;2.322;2022-07-29T00:25:43;22.40;13.00
820;DHT22;392;48.838;2.322;2022-07-29T00:28:10;22.30;13.50
820;DHT22;392;48.838;2.322;2022-07-29T00:30:39;22.30;13.10
820;DHT22;392;48.838;2.322;2022-07-29T00:33:08;22.30;13.40
820;DHT22;392;48.838;2.322;2022-07-29T00:35:36;22.30;13.50
820;DHT22;392;48.838;2.322;2022-07-29T00:38:09;22.30;14.20
820;DHT22;392;48.838;2.322;2022-07-29T00:40:37;22.40;13.30
820;DHT22;392;48.838;2.322;2022-07-29T00:43:05;22.40;13.30
820;DHT22;392;48.838;2.322;2022-07-29T00:45:32;22.40;13.30
820;DHT22;392;48.838;2.322;2022-07-29T00:48:01;22.30;13.30
820;DHT22;392;48.838;2.322;2022-07-29T00:50:30;22.30;13.40
820;DHT22;392;48.838;2.322;2022-07-29T00:52:58;22.30;13.50
820;DHT22;392;48.838;2.322;2022-07-29T00:55:27;22.30;13.70
820;DHT22;392;48.838;2.322;2022-07-29T00:57:57;22.30;14.20
820;DHT22;392;48.838;2.322;2022-07-29T01:00:27;22.30;13.70
820;DHT22;392;48.838;2.322;2022-07-29T01:02:55;22.30;13.90
820;DHT22;392;48.838;2.322;2022-07-29T01:05:26;22.20;13.80
820;DHT22;392;48.838;2.322;2022-07-29T01:07:57;22.20;14.10
820;DHT22;392;48.838;2.322;2022-07-29T01:10:27;22.20;14.00
820;DHT22;392;48.838;2.322;2022-07-29T01:12:57;22.20;14.10
820;DHT22;392;48.838;2.322;2022-07-29T01:15:25;22.20;14.20
820;DHT22;392;48.838;2.322;2022-07-29T01:18:01;22.20;14.10
820;DHT22;392;48.838;2.322;2022-07-29T01:20:44;22.20;14.60
820;DHT22;392;48.838;2.322;2022-07-29T01:23:48;22.20;14.00
820;DHT22;392;48.838;2.322;2022-07-29T01:26:34;22.20;14.10
820;DHT22;392;48.838;2.322;2022-07-29T01:29:22;22.10;14.20
820;DHT22;392;48.838;2.322;2022-07-29T01:31:56;22.10;14.30
820;DHT22;392;48.838;2.322;2022-07-29T01:34:31;22.10;14.30
820;DHT22;392;48.838;2.322;2022-07-29T01:37:08;22.10;14.40
820;DHT22;392;48.838;2.322;2022-07-29T01:39:41;22.00;15.00
820;DHT22;392;48.838;2.322;2022-07-29T01:42:14;22.00;14.40
820;DHT22;392;48.838;2.322;2022-07-29T01:44:53;22.00;14.60
820;DHT22;392;48.838;2.322;2022-07-29T01:47:26;22.00;14.60
820;DHT22;392;48.838;2.322;2022-07-29T01:50:00;21.90;14.60
820;DHT22;392;48.838;2.322;2022-07-29T01:52:34;21.90;14.60
820;DHT22;392;48.838;2.322;2022-07-29T01:55:09;21.90;14.70
820;DHT22;392;48.838;2.322;2022-07-29T01:57:43;21.90;14.70
820;DHT22;392;48.838;2.322;2022-07-29T02:00:14;21.90;14.80
820;DHT22;392;48.838;2.322;2022-07-29T02:02:44;21.90;14.80
820;DHT22;392;48.838;2.322;2022-07-29T02:05:16;21.80;14.80
820;DHT22;392;48.838;2.322;2022-07-29T02:07:47;21.80;14.90
820;DHT22;392;48.838;2.322;2022-07-29T02:10:17;21.80;14.90
820;DHT22;392;48.838;2.322;2022-07-29T02:12:47;21.80;15.00
820;DHT22;392;48.838;2.322;2022-07-29T02:15:17;21.80;15.00
820;DHT22;392;48.838;2.322;2022-07-29T02:17:50;21.80;15.10
820;DHT22;392;48.838;2.322;2022-07-29T02:20:20;21.80;15.00
820;DHT22;392;48.838;2.322;2022-07-29T02:22:50;21.80;15.00
820;DHT22;392;48.838;2.322;2022-07-29T02:25:21;21.70;15.00
820;DHT22;392;48.838;2.322;2022-07-29T02:27:50;21.70;15.10
820;DHT22;392;48.838;2.322;2022-07-29T02:30:22;21.70;15.30
820;DHT22;392;48.838;2.322;2022-07-29T02:32:50;21.70;15.20
820;DHT22;392;48.838;2.322;2022-07-29T02:35:20;21.70;15.20
820;DHT22;392;48.838;2.322;2022-07-29T02:37:48;21.70;15.30
820;DHT22;392;48.838;2.322;2022-07-29T02:40:31;21.70;15.30
820;DHT22;392;48.838;2.322;2022-07-29T02:42:59;21.70;15.40
820;DHT22;392;48.838;2.322;2022-07-29T02:45:29;21.70;15.40
820;DHT22;392;48.838;2.322;2022-07-29T02:47:58;21.70;15.50
820;DHT22;392;48.838;2.322;2022-07-29T02:50:30;21.70;15.50
820;DHT22;392;48.838;2.322;2022-07-29T02:53:08;21.60;15.50
820;DHT22;392;48.838;2.322;2022-07-29T02:55:43;21.60;15.60
820;DHT22;392;48.838;2.322;2022-07-29T02:58:18;21.60;15.60
820;DHT22;392;48.838;2.322;2022-07-29T03:00:53;21.50;15.70
820;DHT22;392;48.838;2.322;2022-07-29T03:03:25;21.50;15.70
820;DHT22;392;48.838;2.322;2022-07-29T03:05:57;21.50;15.70
820;DHT22;392;48.838;2.322;2022-07-29T03:08:24;21.50;15.80
820;DHT22;392;48.838;2.322;2022-07-29T03:10:55;21.50;15.80
820;DHT22;392;48.838;2.322;2022-07-29T03:13:23;21.50;15.80
820;DHT22;392;48.838;2.322;2022-07-29T03:15:54;21.50;15.90
820;DHT22;392;48.838;2.322;2022-07-29T03:18:22;21.60;15.70
820;DHT22;392;48.838;2.322;2022-07-29T03:20:49;21.70;15.60
820;DHT22;392;48.838;2.322;2022-07-29T03:23:19;21.80;15.70
820;DHT22;392;48.838;2.322;2022-07-29T03:25:48;21.90;15.50
820;DHT22;392;48.838;2.322;2022-07-29T03:28:16;22.00;15.90
820;DHT22;392;48.838;2.322;2022-07-29T03:30:43;22.00;16.70
820;DHT22;392;48.838;2.322;2022-07-29T03:33:12;22.00;17.00
820;DHT22;392;48.838;2.322;2022-07-29T03:35:40;22.00;17.40
820;DHT22;392;48.838;2.322;2022-07-29T03:38:08;21.90;17.40
820;DHT22;392;48.838;2.322;2022-07-29T03:40:38;21.90;17.80
820;DHT22;392;48.838;2.322;2022-07-29T03:43:10;21.90;17.70
820;DHT22;392;48.838;2.322;2022-07-29T03:45:38;21.90;17.60
820;DHT22;392;48.838;2.322;2022-07-29T03:48:10;21.90;17.50
820;DHT22;392;48.838;2.322;2022-07-29T03:50:42;21.90;17.70
820;DHT22;392;48.838;2.322;2022-07-29T03:53:10;21.90;17.30
820;DHT22;392;48.838;2.322;2022-07-29T03:55:41;21.80;17.40
820;DHT22;392;48.838;2.322;2022-07-29T03:58:11;21.70;17.50
820;DHT22;392;48.838;2.322;2022-07-29T04:00:40;21.70;17.80
820;DHT22;392;48.838;2.322;2022-07-29T04:03:10;21.60;18.00
820;DHT22;392;48.838;2.322;2022-07-29T04:05:39;21.50;18.30
820;DHT22;392;48.838;2.322;2022-07-29T04:08:06;21.50;18.40
820;DHT22;392;48.838;2.322;2022-07-29T04:10:33;21.40;18.50
820;DHT22;392;48.838;2.322;2022-07-29T04:13:01;21.30;18.60
820;DHT22;392;48.838;2.322;2022-07-29T04:15:28;21.30;18.90
820;DHT22;392;48.838;2.322;2022-07-29T04:17:56;21.30;18.70
820;DHT22;392;48.838;2.322;2022-07-29T04:20:23;21.30;18.50
820;DHT22;392;48.838;2.322;2022-07-29T04:22:52;21.30;18.50
820;DHT22;392;48.838;2.322;2022-07-29T04:25:20;21.20;18.80
820;DHT22;392;48.838;2.322;2022-07-29T04:27:48;21.20;19.30
820;DHT22;392;48.838;2.322;2022-07-29T04:30:27;21.30;18.40
820;DHT22;392;48.838;2.322;2022-07-29T04:32:55;21.30;18.10
820;DHT22;392;48.838;2.322;2022-07-29T04:35:23;21.30;17.90
820;DHT22;392;48.838;2.322;2022-07-29T04:37:52;21.30;18.20
820;DHT22;392;48.838;2.322;2022-07-29T04:40:19;21.30;18.70
820;DHT22;392;48.838;2.322;2022-07-29T04:42:47;21.30;18.90
820;DHT22;392;48.838;2.322;2022-07-29T04:45:14;21.30;19.00
820;DHT22;392;48.838;2.322;2022-07-29T04:47:42;21.20;19.00
820;DHT22;392;48.838;2.322;2022-07-29T04:50:10;21.20;18.90
820;DHT22;392;48.838;2.322;2022-07-29T04:52:37;21.20;18.90
820;DHT22;392;48.838;2.322;2022-07-29T04:55:07;21.20;18.80
820;DHT22;392;48.838;2.322;2022-07-29T04:57:35;21.20;18.90
820;DHT22;392;48.838;2.322;2022-07-29T05:00:04;21.20;18.80
820;DHT22;392;48.838;2.322;2022-07-29T05:02:32;21.20;18.70
820;DHT22;392;48.838;2.322;2022-07-29T05:05:00;21.20;18.70
820;DHT22;392;48.838;2.322;2022-07-29T05:07:27;21.20;18.60
820;DHT22;392;48.838;2.322;2022-07-29T05:09:54;21.30;18.60
820;DHT22;392;48.838;2.322;2022-07-29T05:12:24;21.40;18.50
820;DHT22;392;48.838;2.322;2022-07-29T05:14:51;21.50;18.20
820;DHT22;392;48.838;2.322;2022-07-29T05:17:19;21.70;17.90
820;DHT22;392;48.838;2.322;2022-07-29T05:19:46;21.90;17.00
820;DHT22;392;48.838;2.322;2022-07-29T05:22:13;22.10;16.60
820;DHT22;392;48.838;2.322;2022-07-29T05:24:41;22.20;16.90
820;DHT22;392;48.838;2.322;2022-07-29T05:27:08;22.30;16.10
820;DHT22;392;48.838;2.322;2022-07-29T05:29:37;22.50;16.00
820;DHT22;392;48.838;2.322;2022-07-29T05:32:05;22.60;15.80
820;DHT22;392;48.838;2.322;2022-07-29T05:34:32;22.70;15.60
820;DHT22;392;48.838;2.322;2022-07-29T05:37:00;22.70;15.40
820;DHT22;392;48.838;2.322;2022-07-29T05:39:27;22.70;15.40
820;DHT22;392;48.838;2.322;2022-07-29T05:41:54;22.70;15.10
820;DHT22;392;48.838;2.322;2022-07-29T05:44:21;22.70;15.50
820;DHT22;392;48.838;2.322;2022-07-29T05:46:50;22.60;15.80
820;DHT22;392;48.838;2.322;2022-07-29T05:49:17;22.60;16.20
820;DHT22;392;48.838;2.322;2022-07-29T05:51:45;22.50;16.50
820;DHT22;392;48.838;2.322;2022-07-29T05:54:13;22.40;17.10
820;DHT22;392;48.838;2.322;2022-07-29T05:56:40;22.40;17.00
820;DHT22;392;48.838;2.322;2022-07-29T05:59:08;22.40;17.20
820;DHT22;392;48.838;2.322;2022-07-29T06:01:35;22.40;17.30
820;DHT22;392;48.838;2.322;2022-07-29T06:04:06;22.50;17.10
820;DHT22;392;48.838;2.322;2022-07-29T06:06:34;22.50;17.20
820;DHT22;392;48.838;2.322;2022-07-29T06:09:02;22.50;17.40
820;DHT22;392;48.838;2.322;2022-07-29T06:11:29;22.40;17.90
820;DHT22;392;48.838;2.322;2022-07-29T06:13:57;22.40;17.00
820;DHT22;392;48.838;2.322;2022-07-29T06:16:24;22.40;17.00
820;DHT22;392;48.838;2.322;2022-07-29T06:18:51;22.50;17.20
820;DHT22;392;48.838;2.322;2022-07-29T06:21:20;22.50;16.90
820;DHT22;392;48.838;2.322;2022-07-29T06:23:47;22.60;16.70
820;DHT22;392;48.838;2.322;2022-07-29T06:26:15;22.60;16.70
820;DHT22;392;48.838;2.322;2022-07-29T06:28:42;22.70;16.50
820;DHT22;392;48.838;2.322;2022-07-29T06:31:10;22.80;16.40
820;DHT22;392;48.838;2.322;2022-07-29T06:33:37;22.90;16.90
820;DHT22;392;48.838;2.322;2022-07-29T06:36:05;23.00;16.20
820;DHT22;392;48.838;2.322;2022-07-29T06:38:34;23.10;16.10
820;DHT22;392;48.838;2.322;2022-07-29T06:41:01;23.20;15.90
820;DHT22;392;48.838;2.322;2022-07-29T06:43:31;23.50;15.60
820;DHT22;392;48.838;2.322;2022-07-29T06:46:03;23.70;14.80
820;DHT22;392;48.838;2.322;2022-07-29T06:48:33;24.00;14.10
820;DHT22;392;48.838;2.322;2022-07-29T06:51:02;24.40;13.40
820;DHT22;392;48.838;2.322;2022-07-29T06:53:31;24.80;12.70
820;DHT22;392;48.838;2.322;2022-07-29T06:56:01;25.20;12.80
820;DHT22;392;48.838;2.322;2022-07-29T06:58:29;25.50;13.10
820;DHT22;392;48.838;2.322;2022-07-29T07:00:57;25.80;12.30
820;DHT22;392;48.838;2.322;2022-07-29T07:03:25;26.20;11.80
820;DHT22;392;48.838;2.322;2022-07-29T07:05:53;26.40;11.40
820;DHT22;392;48.838;2.322;2022-07-29T07:08:21;26.50;11.20
820;DHT22;392;48.838;2.322;2022-07-29T07:10:49;26.60;11.20
820;DHT22;392;48.838;2.322;2022-07-29T07:13:19;26.90;10.90
820;DHT22;392;48.838;2.322;2022-07-29T07:15:46;27.10;10.30
820;DHT22;392;48.838;2.322;2022-07-29T07:18:14;27.40;9.90
820;DHT22;392;48.838;2.322;2022-07-29T07:20:42;27.50;10.10
820;DHT22;392;48.838;2.322;2022-07-29T07:23:10;27.70;9.30
820;DHT22;392;48.838;2.322;2022-07-29T07:25:38;27.90;8.90
820;DHT22;392;48.838;2.322;2022-07-29T07:28:05;28.20;8.60
820;DHT22;392;48.838;2.322;2022-07-29T07:30:34;28.40;8.20
820;DHT22;392;48.838;2.322;2022-07-29T07:33:02;28.80;7.90
820;DHT22;392;48.838;2.322;2022-07-29T07:35:29;29.10;7.30
820;DHT22;392;48.838;2.322;2022-07-29T07:37:57;29.40;7.50
820;DHT22;392;48.838;2.322;2022-07-29T07:40:25;29.70;6.50
820;DHT22;392;48.838;2.322;2022-07-29T07:42:52;29.90;6.10
820;DHT22;392;48.838;2.322;2022-07-29T07:45:19;30.20;6.50
820;DHT22;392;48.838;2.322;2022-07-29T07:47:48;30.40;5.40
820;DHT22;392;48.838;2.322;2022-07-29T07:50:15;30.60;5.00
820;DHT22;392;48.838;2.322;2022-07-29T07:52:46;30.60;5.00
820;DHT22;392;48.838;2.322;2022-07-29T07:55:14;30.80;5.00
820;DHT22;392;48.838;2.322;2022-07-29T07:57:42;31.00;4.60
820;DHT22;392;48.838;2.322;2022-07-29T08:00:10;31.20;4.40
820;DHT22;392;48.838;2.322;2022-07-29T08:02:38;31.60;3.90
820;DHT22;392;48.838;2.322;2022-07-29T08:05:08;31.70;4.30
820;DHT22;392;48.838;2.322;2022-07-29T08:07:35;31.80;3.60
820;DHT22;392;48.838;2.322;2022-07-29T08:10:04;32.10;3.00
820;DHT22;392;48.838;2.322;2022-07-29T08:12:31;32.30;2.60
820;DHT22;392;48.838;2.322;2022-07-29T08:14:59;32.30;2.20
820;DHT22;392;48.838;2.322;2022-07-29T08:17:26;32.20;2.20
820;DHT22;392;48.838;2.322;2022-07-29T08:19:54;32.30;2.40
820;DHT22;392;48.838;2.322;2022-07-29T08:22:22;32.30;2.00
820;DHT22;392;48.838;2.322;2022-07-29T08:24:50;32.50;1.70
820;DHT22;392;48.838;2.322;2022-07-29T08:27:21;32.60;1.20
820;DHT22;392;48.838;2.322;2022-07-29T08:29:49;32.70;1.00
820;DHT22;392;48.838;2.322;2022-07-29T08:32:16;32.70;1.00
820;DHT22;392;48.838;2.322;2022-07-29T08:34:44;32.70;1.00
820;DHT22;392;48.838;2.322;2022-07-29T08:37:12;32.70;1.00
820;DHT22;392;48.838;2.322;2022-07-29T08:39:41;32.90;1.50
820;DHT22;392;48.838;2.322;2022-07-29T08:42:08;33.10;2.10
820;DHT22;392;48.838;2.322;2022-07-29T08:44:36;33.20;1.00
820;DHT22;392;48.838;2.322;2022-07-29T08:47:04;33.00;1.00
820;DHT22;392;48.838;2.322;2022-07-29T08:49:33;33.10;1.00
820;DHT22;392;48.838;2.322;2022-07-29T08:52:02;33.00;1.00
820;DHT22;392;48.838;2.322;2022-07-29T08:54:30;33.20;1.00
820;DHT22;392;48.838;2.322;2022-07-29T08:56:59;33.00;1.00
820;DHT22;392;48.838;2.322;2022-07-29T08:59:27;33.00;1.00
820;DHT22;392;48.838;2.322;2022-07-29T09:01:57;33.20;1.00
820;DHT22;392;48.838;2.322;2022-07-29T09:04:29;33.70;1.00
820;DHT22;392;48.838;2.322;2022-07-29T09:06:59;34.30;1.00
820;DHT22;392;48.838;2.322;2022-07-29T09:09:27;34.80;1.00
820;DHT22;392;48.838;2.322;2022-07-29T09:11:55;35.20;1.00
820;DHT22;392;48.838;2.322;2022-07-29T09:14:24;35.30;1.00
820;DHT22;392;48.838;2.322;2022-07-29T09:16:53;35.30;1.00
820;DHT22;392;48.838;2.322;2022-07-29T09:19:24;35.00;1.00
820;DHT22;392;48.838;2.322;2022-07-29T09:21:53;35.20;1.00
820;DHT22;392;48.838;2.322;2022-07-29T09:24:23;35.40;1.00
820;DHT22;392;48.838;2.322;2022-07-29T09:26:52;35.00;1.00
820;DHT22;392;48.838;2.322;2022-07-29T09:29:20;35.30;1.00
820;DHT22;392;48.838;2.322;2022-07-29T09:31:52;35.70;1.00
820;DHT22;392;48.838;2.322;2022-07-29T09:34:25;35.90;1.00
820;DHT22;392;48.838;2.322;2022-07-29T09:36:55;35.90;1.00
820;DHT22;392;48.838;2.322;2022-07-29T09:39:30;36.00;1.00
820;DHT22;392;48.838;2.322;2022-07-29T09:41:59;36.10;1.00
820;DHT22;392;48.838;2.322;2022-07-29T09:44:41;36.40;1.00
820;DHT22;392;48.838;2.322;2022-07-29T09:47:11;36.50;1.00
820;DHT22;392;48.838;2.322;2022-07-29T09:49:52;36.10;1.00
820;DHT22;392;48.838;2.322;2022-07-29T09:52:21;35.80;1.00
820;DHT22;392;48.838;2.322;2022-07-29T09:54:48;35.70;1.00
820;DHT22;392;48.838;2.322;2022-07-29T09:57:25;35.60;1.00
820;DHT22;392;48.838;2.322;2022-07-29T09:59:58;35.70;1.00
820;DHT22;392;48.838;2.322;2022-07-29T10:02:41;36.10;1.00
820;DHT22;392;48.838;2.322;2022-07-29T10:05:19;36.50;1.00
820;DHT22;392;48.838;2.322;2022-07-29T10:07:48;36.80;1.00
820;DHT22;392;48.838;2.322;2022-07-29T10:10:22;36.60;1.00
820;DHT22;392;48.838;2.322;2022-07-29T10:12:52;36.60;1.00
820;DHT22;392;48.838;2.322;2022-07-29T10:15:22;36.70;1.00
820;DHT22;392;48.838;2.322;2022-07-29T10:17:52;37.00;1.00
820;DHT22;392;48.838;2.322;2022-07-29T10:20:21;37.40;1.00
820;DHT22;392;48.838;2.322;2022-07-29T10:22:50;37.50;1.00
820;DHT22;392;48.838;2.322;2022-07-29T10:25:19;37.60;1.00
820;DHT22;392;48.838;2.322;2022-07-29T10:27:47;37.60;1.00
820;DHT22;392;48.838;2.322;2022-07-29T10:30:17;37.70;1.00
820;DHT22;392;48.838;2.322;2022-07-29T10:35:59;37.70;1.00
820;DHT22;392;48.838;2.322;2022-07-29T10:38:43;37.90;1.00
820;DHT22;392;48.838;2.322;2022-07-29T10:44:18;38.20;1.00
820;DHT22;392;48.838;2.322;2022-07-29T10:46:47;38.40;1.00
820;DHT22;392;48.838;2.322;2022-07-29T10:49:17;38.70;1.00
820;DHT22;392;48.838;2.322;2022-07-29T10:52:00;38.80;1.00
820;DHT22;392;48.838;2.322;2022-07-29T10:54:47;38.70;1.00
820;DHT22;392;48.838;2.322;2022-07-29T10:57:22;38.50;1.00
820;DHT22;392;48.838;2.322;2022-07-29T11:00:25;38.50;1.00
820;DHT22;392;48.838;2.322;2022-07-29T11:02:54;38.40;1.00
820;DHT22;392;48.838;2.322;2022-07-29T11:05:25;38.40;1.00
820;DHT22;392;48.838;2.322;2022-07-29T11:08:18;38.40;1.00
820;DHT22;392;48.838;2.322;2022-07-29T11:10:49;37.80;1.00
820;DHT22;392;48.838;2.322;2022-07-29T11:13:46;37.70;1.00
820;DHT22;392;48.838;2.322;2022-07-29T11:16:16;37.90;1.00
820;DHT22;392;48.838;2.322;2022-07-29T11:19:19;38.20;1.00
820;DHT22;392;48.838;2.322;2022-07-29T11:21:50;38.30;1.00
820;DHT22;392;48.838;2.322;2022-07-29T11:24:20;38.30;1.00
820;DHT22;392;48.838;2.322;2022-07-29T11:27:09;38.20;1.00
820;DHT22;392;48.838;2.322;2022-07-29T11:29:51;38.20;1.00
820;DHT22;392;48.838;2.322;2022-07-29T11:32:22;38.20;1.00
820;DHT22;392;48.838;2.322;2022-07-29T11:35:11;38.20;1.00
820;DHT22;392;48.838;2.322;2022-07-29T11:37:41;38.10;1.00
820;DHT22;392;48.838;2.322;2022-07-29T11:40:11;38.20;1.00
820;DHT22;392;48.838;2.322;2022-07-29T11:42:46;38.20;1.00
820;DHT22;392;48.838;2.322;2022-07-29T11:45:18;38.30;1.00
820;DHT22;392;48.838;2.322;2022-07-29T11:47:51;38.30;1.00
820;DHT22;392;48.838;2.322;2022-07-29T11:50:34;38.40;1.00
820;DHT22;392;48.838;2.322;2022-07-29T11:53:10;38.30;1.00
820;DHT22;392;48.838;2.322;2022-07-29T11:55:39;38.00;1.00
820;DHT22;392;48.838;2.322;2022-07-29T11:58:07;37.90;1.00
820;DHT22;392;48.838;2.322;2022-07-29T12:00:36;38.00;1.00
820;DHT22;392;48.838;2.322;2022-07-29T12:03:07;38.20;1.00
820;DHT22;392;48.838;2.322;2022-07-29T12:05:38;38.30;1.00
820;DHT22;392;48.838;2.322;2022-07-29T12:08:10;38.00;1.00
820;DHT22;392;48.838;2.322;2022-07-29T12:10:40;37.60;1.00
820;DHT22;392;48.838;2.322;2022-07-29T12:13:09;37.30;1.00
820;DHT22;392;48.838;2.322;2022-07-29T12:15:36;37.30;1.00
820;DHT22;392;48.838;2.322;2022-07-29T12:18:15;37.30;1.00
820;DHT22;392;48.838;2.322;2022-07-29T12:20:43;37.50;1.00
820;DHT22;392;48.838;2.322;2022-07-29T12:23:13;37.20;1.00
820;DHT22;392;48.838;2.322;2022-07-29T12:25:43;37.00;1.00
820;DHT22;392;48.838;2.322;2022-07-29T12:28:12;37.10;1.00
820;DHT22;392;48.838;2.322;2022-07-29T12:30:43;37.00;1.00
820;DHT22;392;48.838;2.322;2022-07-29T12:33:15;36.80;1.00
820;DHT22;392;48.838;2.322;2022-07-29T12:35:45;36.80;1.00
820;DHT22;392;48.838;2.322;2022-07-29T12:38:16;37.20;1.00
820;DHT22;392;48.838;2.322;2022-07-29T12:40:44;37.30;1.00
820;DHT22;392;48.838;2.322;2022-07-29T12:43:14;37.20;1.00
820;DHT22;392;48.838;2.322;2022-07-29T12:45:44;37.20;1.00
820;DHT22;392;48.838;2.322;2022-07-29T12:48:13;37.20;1.00
820;DHT22;392;48.838;2.322;2022-07-29T12:50:55;37.10;1.00
820;DHT22;392;48.838;2.322;2022-07-29T12:53:24;36.60;1.00
820;DHT22;392;48.838;2.322;2022-07-29T12:55:53;36.20;1.00
820;DHT22;392;48.838;2.322;2022-07-29T12:58:30;35.80;1.00
820;DHT22;392;48.838;2.322;2022-07-29T13:01:05;35.10;1.00
820;DHT22;392;48.838;2.322;2022-07-29T13:03:48;34.50;1.00
820;DHT22;392;48.838;2.322;2022-07-29T13:06:35;33.80;1.00
820;DHT22;392;48.838;2.322;2022-07-29T13:09:09;33.20;1.00
820;DHT22;392;48.838;2.322;2022-07-29T13:11:40;32.90;1.00
820;DHT22;392;48.838;2.322;2022-07-29T13:14:11;32.60;1.00
820;DHT22;392;48.838;2.322;2022-07-29T13:17:03;32.20;1.00
820;DHT22;392;48.838;2.322;2022-07-29T13:19:37;32.20;1.00
820;DHT22;392;48.838;2.322;2022-07-29T13:22:06;32.40;1.00
820;DHT22;392;48.838;2.322;2022-07-29T13:24:45;32.80;1.00
820;DHT22;392;48.838;2.322;2022-07-29T13:27:14;33.20;1.00
820;DHT22;392;48.838;2.322;2022-07-29T13:29:42;33.60;1.00
820;DHT22;392;48.838;2.322;2022-07-29T13:32:09;33.80;1.00
820;DHT22;392;48.838;2.322;2022-07-29T13:34:37;33.90;1.00
820;DHT22;392;48.838;2.322;2022-07-29T13:37:04;33.90;1.00
820;DHT22;392;48.838;2.322;2022-07-29T13:39:32;33.90;1.00
820;DHT22;392;48.838;2.322;2022-07-29T13:42:00;33.90;1.00
820;DHT22;392;48.838;2.322;2022-07-29T13:44:29;33.80;1.00
820;DHT22;392;48.838;2.322;2022-07-29T13:46:57;33.90;1.00
820;DHT22;392;48.838;2.322;2022-07-29T13:49:24;33.70;1.00
820;DHT22;392;48.838;2.322;2022-07-29T13:51:52;33.60;1.00
820;DHT22;392;48.838;2.322;2022-07-29T13:54:20;33.30;1.00
820;DHT22;392;48.838;2.322;2022-07-29T13:56:47;33.00;1.00
820;DHT22;392;48.838;2.322;2022-07-29T13:59:16;32.80;1.00
820;DHT22;392;48.838;2.322;2022-07-29T14:01:43;32.70;1.00
820;DHT22;392;48.838;2.322;2022-07-29T14:04:11;32.50;1.00
820;DHT22;392;48.838;2.322;2022-07-29T14:06:39;32.20;1.00
820;DHT22;392;48.838;2.322;2022-07-29T14:09:06;32.10;1.00
820;DHT22;392;48.838;2.322;2022-07-29T14:11:34;32.00;1.00
820;DHT22;392;48.838;2.322;2022-07-29T14:14:04;32.00;1.00
820;DHT22;392;48.838;2.322;2022-07-29T14:16:33;31.90;1.00
820;DHT22;392;48.838;2.322;2022-07-29T14:19:01;31.80;1.00
820;DHT22;392;48.838;2.322;2022-07-29T14:21:28;31.50;1.00
820;DHT22;392;48.838;2.322;2022-07-29T14:23:56;31.40;1.80
820;DHT22;392;48.838;2.322;2022-07-29T14:26:23;31.30;1.00
820;DHT22;392;48.838;2.322;2022-07-29T14:28:50;31.30;1.90
820;DHT22;392;48.838;2.322;2022-07-29T14:31:18;31.20;1.80
820;DHT22;392;48.838;2.322;2022-07-29T14:33:46;31.10;1.50
820;DHT22;392;48.838;2.322;2022-07-29T14:36:14;31.00;1.20
820;DHT22;392;48.838;2.322;2022-07-29T14:38:41;30.80;2.00
820;DHT22;392;48.838;2.322;2022-07-29T14:41:09;30.70;2.50
820;DHT22;392;48.838;2.322;2022-07-29T14:43:36;30.70;3.00
820;DHT22;392;48.838;2.322;2022-07-29T14:46:03;30.70;1.90
820;DHT22;392;48.838;2.322;2022-07-29T14:48:32;30.70;1.80
820;DHT22;392;48.838;2.322;2022-07-29T14:51:02;30.80;2.90
820;DHT22;392;48.838;2.322;2022-07-29T14:53:29;30.80;2.50
820;DHT22;392;48.838;2.322;2022-07-29T14:55:57;30.90;1.80
820;DHT22;392;48.838;2.322;2022-07-29T14:58:24;31.00;1.80
820;DHT22;392;48.838;2.322;2022-07-29T15:00:51;31.00;1.90
820;DHT22;392;48.838;2.322;2022-07-29T15:03:20;31.00;2.30
820;DHT22;392;48.838;2.322;2022-07-29T15:05:47;31.00;1.80
820;DHT22;392;48.838;2.322;2022-07-29T15:08:16;30.90;2.00
820;DHT22;392;48.838;2.322;2022-07-29T15:10:43;30.90;2.50
820;DHT22;392;48.838;2.322;2022-07-29T15:13:11;30.90;1.80
820;DHT22;392;48.838;2.322;2022-07-29T15:15:38;31.00;2.20
820;DHT22;392;48.838;2.322;2022-07-29T15:18:06;31.10;1.60
820;DHT22;392;48.838;2.322;2022-07-29T15:20:34;31.20;1.50
820;DHT22;392;48.838;2.322;2022-07-29T15:23:02;31.30;1.40
820;DHT22;392;48.838;2.322;2022-07-29T15:25:31;31.30;1.80
820;DHT22;392;48.838;2.322;2022-07-29T15:28:02;31.30;1.50
820;DHT22;392;48.838;2.322;2022-07-29T15:30:33;31.20;1.60
820;DHT22;392;48.838;2.322;2022-07-29T15:33:02;31.10;1.80
820;DHT22;392;48.838;2.322;2022-07-29T15:35:29;31.00;2.00
820;DHT22;392;48.838;2.322;2022-07-29T15:37:57;31.00;2.80
820;DHT22;392;48.838;2.322;2022-07-29T15:40:25;30.90;2.80
820;DHT22;392;48.838;2.322;2022-07-29T15:42:53;30.90;2.70
820;DHT22;392;48.838;2.322;2022-07-29T15:45:21;30.80;3.50
820;DHT22;392;48.838;2.322;2022-07-29T15:47:48;30.70;3.00
820;DHT22;392;48.838;2.322;2022-07-29T15:50:15;30.70;4.10
820;DHT22;392;48.838;2.322;2022-07-29T15:52:44;30.60;2.40
820;DHT22;392;48.838;2.322;2022-07-29T15:55:12;30.40;3.80
820;DHT22;392;48.838;2.322;2022-07-29T15:57:40;30.40;4.20
820;DHT22;392;48.838;2.322;2022-07-29T16:00:10;30.40;3.00
820;DHT22;392;48.838;2.322;2022-07-29T16:02:38;30.50;4.00
820;DHT22;392;48.838;2.322;2022-07-29T16:05:06;30.60;3.40
820;DHT22;392;48.838;2.322;2022-07-29T16:07:33;30.70;3.30
820;DHT22;392;48.838;2.322;2022-07-29T16:10:01;30.80;2.60
820;DHT22;392;48.838;2.322;2022-07-29T16:12:29;30.90;2.60
820;DHT22;392;48.838;2.322;2022-07-29T16:14:56;30.90;2.20
820;DHT22;392;48.838;2.322;2022-07-29T16:17:25;30.80;2.10
820;DHT22;392;48.838;2.322;2022-07-29T16:19:52;30.70;3.40
820;DHT22;392;48.838;2.322;2022-07-29T16:22:20;30.60;3.10
820;DHT22;392;48.838;2.322;2022-07-29T16:24:47;30.40;2.60
820;DHT22;392;48.838;2.322;2022-07-29T16:27:14;30.30;2.80
820;DHT22;392;48.838;2.322;2022-07-29T16:29:42;30.20;3.10
820;DHT22;392;48.838;2.322;2022-07-29T16:32:11;30.10;4.60
820;DHT22;392;48.838;2.322;2022-07-29T16:34:40;30.00;4.20
820;DHT22;392;48.838;2.322;2022-07-29T16:37:07;29.90;4.70
820;DHT22;392;48.838;2.322;2022-07-29T16:39:35;29.90;4.50
820;DHT22;392;48.838;2.322;2022-07-29T16:42:03;29.90;4.50
820;DHT22;392;48.838;2.322;2022-07-29T16:44:31;30.00;3.60
820;DHT22;392;48.838;2.322;2022-07-29T16:47:00;30.20;3.40
820;DHT22;392;48.838;2.322;2022-07-29T16:49:27;30.30;3.20
820;DHT22;392;48.838;2.322;2022-07-29T16:51:56;30.40;3.60
820;DHT22;392;48.838;2.322;2022-07-29T16:54:23;30.40;3.10
820;DHT22;392;48.838;2.322;2022-07-29T16:56:50;30.40;3.80
820;DHT22;392;48.838;2.322;2022-07-29T16:59:18;30.50;3.00
820;DHT22;392;48.838;2.322;2022-07-29T17:01:46;30.50;3.90
820;DHT22;392;48.838;2.322;2022-07-29T17:04:13;30.50;3.50
820;DHT22;392;48.838;2.322;2022-07-29T17:06:41;30.50;2.70
820;DHT22;392;48.838;2.322;2022-07-29T17:09:11;30.50;3.10